createdAt,value
2023-04-30T00:01:17.724Z,48.64
2023-04-30T00:03:50.091Z,48.79
2023-04-30T00:06:22.489Z,48.98
2023-04-30T00:08:54.755Z,48.93
2023-04-30T00:11:27.057Z,49.17
2023-04-30T00:13:59.503Z,49.05
2023-04-30T00:16:31.830Z,48.83
2023-04-30T00:19:04.077Z,49.01
2023-04-30T00:21:36.828Z,49.12
2023-04-30T00:24:09.526Z,49.23
2023-04-30T00:26:42.808Z,49.47
2023-04-30T00:29:15.209Z,49.39
2023-04-30T00:31:47.422Z,49.49
2023-04-30T00:34:19.689Z,49.47
2023-04-30T00:36:51.981Z,49.66
2023-04-30T00:39:24.353Z,49.60
2023-04-30T00:41:56.710Z,49.63
2023-04-30T00:44:29.013Z,49.70
2023-04-30T00:47:01.379Z,49.95
2023-04-30T00:49:33.643Z,50.00
2023-04-30T00:52:06.579Z,50.18
2023-04-30T00:54:39.035Z,50.17
2023-04-30T00:57:14.019Z,50.40
2023-04-30T00:59:47.194Z,50.51
2023-04-30T01:02:20.147Z,50.59
2023-04-30T01:04:54.093Z,50.64
2023-04-30T01:07:28.454Z,50.70
2023-04-30T01:10:00.923Z,50.91
2023-04-30T01:12:40.816Z,50.89
2023-04-30T01:15:20.557Z,51.00
2023-04-30T01:17:58.474Z,51.01
2023-04-30T01:20:33.502Z,50.83
2023-04-30T01:23:20.356Z,50.85
2023-04-30T01:26:06.432Z,50.83
2023-04-30T01:28:39.621Z,50.85
2023-04-30T01:31:16.878Z,50.82
2023-04-30T01:33:49.217Z,50.74
2023-04-30T01:36:36.698Z,50.76
2023-04-30T01:39:24.422Z,50.65
2023-04-30T01:42:07.708Z,50.93
2023-04-30T01:44:56.957Z,51.16
2023-04-30T01:47:35.506Z,51.17
2023-04-30T01:50:21.885Z,51.09
2023-04-30T01:52:54.140Z,51.16
2023-04-30T01:55:36.411Z,51.23
2023-04-30T01:58:12.506Z,51.32
2023-04-30T02:00:44.851Z,51.54
2023-04-30T02:03:17.215Z,51.54
2023-04-30T02:05:50.213Z,51.68
2023-04-30T02:08:22.464Z,51.78
2023-04-30T02:10:54.839Z,51.76
2023-04-30T02:13:27.087Z,51.82
2023-04-30T02:15:59.446Z,51.84
2023-04-30T02:18:31.825Z,51.95
2023-04-30T02:21:04.171Z,51.91
2023-04-30T02:23:36.621Z,52.08
2023-04-30T02:26:09.083Z,52.02
2023-04-30T02:28:41.323Z,52.05
2023-04-30T02:31:13.905Z,52.14
2023-04-30T02:33:46.371Z,52.14
2023-04-30T02:36:18.717Z,52.25
2023-04-30T02:38:50.904Z,52.30
2023-04-30T02:41:23.398Z,52.31
2023-04-30T02:43:55.894Z,52.49
2023-04-30T02:46:28.105Z,52.42
2023-04-30T02:49:00.406Z,52.54
2023-04-30T02:51:32.806Z,52.75
2023-04-30T02:54:05.310Z,52.72
2023-04-30T02:56:38.933Z,52.69
2023-04-30T02:59:11.323Z,52.87
2023-04-30T03:01:43.748Z,53.05
2023-04-30T03:04:16.386Z,53.12
2023-04-30T03:06:48.651Z,53.07
2023-04-30T03:09:22.584Z,53.14
2023-04-30T03:11:54.939Z,53.23
2023-04-30T03:14:27.241Z,53.21
2023-04-30T03:16:59.610Z,53.38
2023-04-30T03:19:31.938Z,53.48
2023-04-30T03:22:04.221Z,53.70
2023-04-30T03:24:36.589Z,53.66
2023-04-30T03:27:08.914Z,53.75
2023-04-30T03:29:41.093Z,53.92
2023-04-30T03:32:13.355Z,54.01
2023-04-30T03:34:46.362Z,54.12
2023-04-30T03:37:18.797Z,54.23
2023-04-30T03:39:51.179Z,54.29
2023-04-30T03:42:23.601Z,54.47
2023-04-30T03:44:55.860Z,54.57
2023-04-30T03:47:28.318Z,54.60
2023-04-30T03:50:00.684Z,54.83
2023-04-30T03:52:33.911Z,54.74
2023-04-30T03:55:06.610Z,54.85
2023-04-30T03:57:39.235Z,54.98
2023-04-30T04:00:13.510Z,54.82
2023-04-30T04:02:46.130Z,54.85
2023-04-30T04:05:18.536Z,54.95
2023-04-30T04:07:50.933Z,54.77
2023-04-30T04:10:23.374Z,54.77
2023-04-30T04:12:55.842Z,54.86
2023-04-30T04:15:28.328Z,54.93
2023-04-30T04:18:00.758Z,54.90
2023-04-30T04:20:33.080Z,55.03
2023-04-30T04:23:05.336Z,54.93
2023-04-30T04:25:39.548Z,55.00
2023-04-30T04:28:11.834Z,54.95
2023-04-30T04:30:44.135Z,54.96
2023-04-30T04:33:16.378Z,54.95
2023-04-30T04:35:48.894Z,55.05
2023-04-30T04:38:21.473Z,54.93
2023-04-30T04:40:57.587Z,55.04
2023-04-30T04:43:29.960Z,55.18
2023-04-30T04:46:03.250Z,55.19
2023-04-30T04:48:35.622Z,55.22
2023-04-30T04:51:08.463Z,55.29
2023-04-30T04:53:40.713Z,55.35
2023-04-30T04:56:13.048Z,55.39
2023-04-30T04:58:46.532Z,55.44
2023-04-30T05:01:18.858Z,55.40
2023-04-30T05:03:51.262Z,55.50
2023-04-30T05:06:23.854Z,55.42
2023-04-30T05:08:56.119Z,55.50
2023-04-30T05:11:28.547Z,55.70
2023-04-30T05:14:00.839Z,55.75
2023-04-30T05:16:33.357Z,55.58
2023-04-30T05:19:05.726Z,55.69
2023-04-30T05:21:38.144Z,55.67
2023-04-30T05:24:10.695Z,55.59
2023-04-30T05:26:43.090Z,55.60
2023-04-30T05:29:15.308Z,55.69
2023-04-30T05:31:47.655Z,55.55
2023-04-30T05:34:19.950Z,55.49
2023-04-30T05:36:52.277Z,55.43
2023-04-30T05:39:24.746Z,55.57
2023-04-30T05:41:57.042Z,55.43
2023-04-30T05:44:30.537Z,55.41
2023-04-30T05:47:02.882Z,55.49
2023-04-30T05:49:36.267Z,55.55
2023-04-30T05:52:08.804Z,55.29
2023-04-30T05:54:41.152Z,55.17
2023-04-30T05:57:13.402Z,55.27
2023-04-30T05:59:45.665Z,54.98
2023-04-30T06:02:17.949Z,54.84
2023-04-30T06:04:50.703Z,54.66
2023-04-30T06:07:23.010Z,54.49
2023-04-30T06:09:55.448Z,54.54
2023-04-30T06:12:29.129Z,54.41
2023-04-30T06:15:01.467Z,54.27
2023-04-30T06:17:33.961Z,54.07
2023-04-30T06:20:07.725Z,53.93
2023-04-30T06:22:41.268Z,53.74
2023-04-30T06:25:13.903Z,53.53
2023-04-30T06:27:46.289Z,53.30
2023-04-30T06:30:18.965Z,53.27
2023-04-30T06:32:51.694Z,53.17
2023-04-30T06:35:24.686Z,53.03
2023-04-30T06:37:57.044Z,52.88
2023-04-30T06:40:29.321Z,52.79
2023-04-30T06:43:01.719Z,52.40
2023-04-30T06:45:34.184Z,52.29
2023-04-30T06:48:06.919Z,52.02
2023-04-30T06:50:45.011Z,51.68
2023-04-30T06:53:18.083Z,51.23
2023-04-30T06:55:50.902Z,50.85
2023-04-30T06:58:23.291Z,50.71
2023-04-30T07:00:55.601Z,50.32
2023-04-30T07:03:28.242Z,50.11
2023-04-30T07:06:00.946Z,49.46
2023-04-30T07:08:33.308Z,49.20
2023-04-30T07:11:05.658Z,48.93
2023-04-30T07:13:38.570Z,48.41
2023-04-30T07:16:12.052Z,47.86
2023-04-30T07:18:44.584Z,47.83
2023-04-30T07:21:16.859Z,47.40
2023-04-30T07:23:51.665Z,47.28
2023-04-30T07:26:26.675Z,46.92
2023-04-30T07:28:59.090Z,46.27
2023-04-30T07:31:31.515Z,46.17
2023-04-30T07:34:03.906Z,46.20
2023-04-30T07:36:36.371Z,45.54
2023-04-30T07:39:10.173Z,45.31
2023-04-30T07:41:42.505Z,45.09
2023-04-30T07:44:14.822Z,44.85
2023-04-30T07:46:47.457Z,44.75
2023-04-30T07:49:19.708Z,44.36
2023-04-30T07:51:52.175Z,43.47
2023-04-30T07:54:24.663Z,43.39
2023-04-30T07:56:56.981Z,43.05
2023-04-30T07:59:29.373Z,42.98
2023-04-30T08:02:02.610Z,42.76
2023-04-30T08:04:35.199Z,42.23
2023-04-30T08:07:07.773Z,42.07
2023-04-30T08:09:40.096Z,41.84
2023-04-30T08:12:13.218Z,41.77
2023-04-30T08:14:45.448Z,41.29
2023-04-30T08:17:17.814Z,41.06
2023-04-30T08:19:50.365Z,40.49
2023-04-30T08:22:22.844Z,39.92
2023-04-30T08:24:55.966Z,39.53
2023-04-30T08:27:28.406Z,39.51
2023-04-30T08:30:00.780Z,38.94
2023-04-30T08:32:36.051Z,38.88
2023-04-30T08:35:09.796Z,38.70
2023-04-30T08:37:42.051Z,38.45
2023-04-30T08:40:16.615Z,38.38
2023-04-30T08:42:55.284Z,38.28
2023-04-30T08:45:28.068Z,38.07
2023-04-30T08:48:02.862Z,38.07
2023-04-30T08:50:35.349Z,37.92
2023-04-30T08:53:09.153Z,37.14
2023-04-30T08:55:41.957Z,36.94
2023-04-30T08:58:14.358Z,36.99
2023-04-30T09:00:46.810Z,36.58
2023-04-30T09:03:19.351Z,36.62
2023-04-30T09:05:52.411Z,36.02
2023-04-30T09:08:44.698Z,36.14
2023-04-30T09:11:26.712Z,36.10
2023-04-30T09:14:00.726Z,36.06
2023-04-30T09:16:47.272Z,35.72
2023-04-30T09:19:28.456Z,35.50
2023-04-30T09:22:01.115Z,35.51
2023-04-30T09:24:49.421Z,34.51
2023-04-30T09:27:22.961Z,34.88
2023-04-30T09:29:55.591Z,35.16
2023-04-30T09:32:29.135Z,34.18
2023-04-30T09:35:01.531Z,34.19
2023-04-30T09:37:40.999Z,33.98
2023-04-30T09:40:14.520Z,33.99
2023-04-30T09:43:01.609Z,34.14
2023-04-30T09:45:48.573Z,34.02
2023-04-30T09:48:23.171Z,33.94
2023-04-30T09:50:55.645Z,33.51
2023-04-30T09:53:28.125Z,33.43
2023-04-30T09:56:03.016Z,33.45
2023-04-30T09:58:39.998Z,33.72
2023-04-30T10:01:13.623Z,33.16
2023-04-30T10:03:47.300Z,33.23
2023-04-30T10:06:20.153Z,33.14
2023-04-30T10:08:57.641Z,32.57
2023-04-30T10:11:33.499Z,32.82
2023-04-30T10:14:09.372Z,32.73
2023-04-30T10:16:49.221Z,32.60
2023-04-30T10:19:24.898Z,32.95
2023-04-30T10:21:57.389Z,32.90
2023-04-30T10:24:30.178Z,32.89
2023-04-30T10:27:03.276Z,32.18
2023-04-30T10:29:35.608Z,32.64
2023-04-30T10:32:09.413Z,32.95
2023-04-30T10:34:51.463Z,32.72
2023-04-30T10:37:31.336Z,32.59
2023-04-30T10:40:05.986Z,32.40
2023-04-30T10:42:39.194Z,32.00
2023-04-30T10:45:14.846Z,31.70
2023-04-30T10:47:47.658Z,31.81
2023-04-30T10:50:24.969Z,31.68
2023-04-30T10:53:07.265Z,32.12
2023-04-30T10:55:53.479Z,31.96
2023-04-30T10:58:31.895Z,31.73
2023-04-30T11:01:11.503Z,31.77
2023-04-30T11:04:04.853Z,31.62
2023-04-30T11:06:58.252Z,31.77
2023-04-30T11:09:41.077Z,31.73
2023-04-30T11:12:20.898Z,31.70
2023-04-30T11:14:53.351Z,31.73
2023-04-30T11:17:28.422Z,31.81
2023-04-30T11:20:02.889Z,31.36
2023-04-30T11:22:37.111Z,31.47
2023-04-30T11:25:10.989Z,31.67
2023-04-30T11:27:45.358Z,31.40
2023-04-30T11:30:20.607Z,31.53
2023-04-30T11:32:54.886Z,31.75
2023-04-30T11:35:29.980Z,31.67
2023-04-30T11:38:03.595Z,31.90
2023-04-30T11:40:38.495Z,31.86
2023-04-30T11:43:21.993Z,31.87
2023-04-30T11:46:06.543Z,31.83
2023-04-30T11:48:40.989Z,32.00
2023-04-30T11:51:20.833Z,31.66
2023-04-30T11:53:54.717Z,31.65
2023-04-30T11:56:27.803Z,31.80
2023-04-30T11:59:00.123Z,31.76
2023-04-30T12:01:32.489Z,31.93
2023-04-30T12:04:05.600Z,32.11
2023-04-30T12:06:38.534Z,32.04
2023-04-30T12:09:11.917Z,32.11
2023-04-30T12:11:44.206Z,31.92
2023-04-30T12:14:16.447Z,32.06
2023-04-30T12:16:50.406Z,31.92
2023-04-30T12:19:25.354Z,32.14
2023-04-30T12:21:58.098Z,32.05
2023-04-30T12:24:30.508Z,32.02
2023-04-30T12:27:03.348Z,32.22
2023-04-30T12:29:36.419Z,32.12
2023-04-30T12:32:09.061Z,32.07
2023-04-30T12:34:43.087Z,32.05
2023-04-30T12:37:18.126Z,32.23
2023-04-30T12:39:50.572Z,32.23
2023-04-30T12:42:22.966Z,32.21
2023-04-30T12:44:55.328Z,32.43
2023-04-30T12:47:28.767Z,32.42
2023-04-30T12:50:02.088Z,32.47
2023-04-30T12:52:35.817Z,32.43
2023-04-30T12:55:21.126Z,32.35
2023-04-30T12:58:11.075Z,32.54
2023-04-30T13:00:51.090Z,32.58
2023-04-30T13:03:24.346Z,32.63
2023-04-30T13:05:58.705Z,32.46
2023-04-30T13:08:33.777Z,32.53
2023-04-30T13:11:11.396Z,32.46
2023-04-30T13:13:44.082Z,32.32
2023-04-30T13:16:16.879Z,32.25
2023-04-30T13:18:49.163Z,32.35
2023-04-30T13:21:21.972Z,32.50
2023-04-30T13:23:55.302Z,32.55
2023-04-30T13:26:29.852Z,32.35
2023-04-30T13:29:02.383Z,32.46
2023-04-30T13:31:35.075Z,32.44
2023-04-30T13:34:07.498Z,32.54
2023-04-30T13:36:40.287Z,32.55
2023-04-30T13:39:12.869Z,32.56
2023-04-30T13:41:45.207Z,32.69
2023-04-30T13:44:18.157Z,32.32
2023-04-30T13:46:50.690Z,32.26
2023-04-30T13:49:23.141Z,32.39
2023-04-30T13:51:55.477Z,32.46
2023-04-30T13:54:27.702Z,32.51
2023-04-30T13:57:00.965Z,32.47
2023-04-30T13:59:33.424Z,32.49
2023-04-30T14:02:05.762Z,32.41
2023-04-30T14:04:38.764Z,32.26
2023-04-30T14:07:11.091Z,32.42
2023-04-30T14:09:43.487Z,32.56
2023-04-30T14:12:15.859Z,32.47
2023-04-30T14:14:48.202Z,32.51
2023-04-30T14:17:20.709Z,32.31
2023-04-30T14:19:53.309Z,32.42
2023-04-30T14:22:25.926Z,32.53
2023-04-30T14:24:59.882Z,32.49
2023-04-30T14:27:32.301Z,32.56
2023-04-30T14:30:05.210Z,32.52
2023-04-30T14:32:38.121Z,32.44
2023-04-30T14:35:11.717Z,32.49
2023-04-30T14:37:44.101Z,32.44
2023-04-30T14:40:17.664Z,32.48
2023-04-30T14:42:50.817Z,32.59
2023-04-30T14:45:23.181Z,32.52
2023-04-30T14:47:55.585Z,32.55
2023-04-30T14:50:28.129Z,32.39
2023-04-30T14:53:00.536Z,32.53
2023-04-30T14:55:33.025Z,32.53
2023-04-30T14:58:05.632Z,32.62
2023-04-30T15:00:37.932Z,32.53
2023-04-30T15:03:10.427Z,32.49
2023-04-30T15:05:43.326Z,32.68
2023-04-30T15:08:16.497Z,32.92
2023-04-30T15:10:48.861Z,33.19
2023-04-30T15:13:21.354Z,33.38
2023-04-30T15:15:53.937Z,33.55
2023-04-30T15:18:26.716Z,33.83
2023-04-30T15:20:59.354Z,33.97
2023-04-30T15:23:32.064Z,33.94
2023-04-30T15:26:05.550Z,33.98
2023-04-30T15:28:37.865Z,33.96
2023-04-30T15:31:11.467Z,33.94
2023-04-30T15:33:43.967Z,34.06
2023-04-30T15:36:16.213Z,34.17
2023-04-30T15:38:48.450Z,34.22
2023-04-30T15:41:21.784Z,34.25
2023-04-30T15:43:54.085Z,34.45
2023-04-30T15:46:26.441Z,34.40
2023-04-30T15:48:58.864Z,34.78
2023-04-30T15:51:31.431Z,34.73
2023-04-30T15:54:03.772Z,34.71
2023-04-30T15:56:36.779Z,34.76
2023-04-30T15:59:09.292Z,34.87
2023-04-30T16:01:41.781Z,34.99
2023-04-30T16:04:14.767Z,35.12
2023-04-30T16:06:47.710Z,35.25
2023-04-30T16:09:20.894Z,35.16
2023-04-30T16:11:53.224Z,35.22
2023-04-30T16:14:25.660Z,35.27
2023-04-30T16:16:58.258Z,35.37
2023-04-30T16:19:30.524Z,35.36
2023-04-30T16:22:02.970Z,35.42
2023-04-30T16:24:35.364Z,35.40
2023-04-30T16:27:08.577Z,35.66
2023-04-30T16:29:40.906Z,35.55
2023-04-30T16:32:13.358Z,35.58
2023-04-30T16:34:46.164Z,35.80
2023-04-30T16:37:18.572Z,35.71
2023-04-30T16:39:50.900Z,35.91
2023-04-30T16:42:23.341Z,35.81
2023-04-30T16:44:55.726Z,35.94
2023-04-30T16:47:28.197Z,35.66
2023-04-30T16:50:01.017Z,35.70
2023-04-30T16:52:33.968Z,35.79
2023-04-30T16:55:07.270Z,35.87
2023-04-30T16:57:39.846Z,36.10
2023-04-30T17:00:14.668Z,36.05
2023-04-30T17:02:49.166Z,36.23
2023-04-30T17:05:22.653Z,36.39
2023-04-30T17:07:55.329Z,36.17
2023-04-30T17:10:30.141Z,36.40
2023-04-30T17:13:05.628Z,36.30
2023-04-30T17:15:36.419Z,36.40
2023-04-30T17:18:09.852Z,36.58
2023-04-30T17:20:42.346Z,36.55
2023-04-30T17:23:14.889Z,36.63
2023-04-30T17:25:47.102Z,36.61
2023-04-30T17:28:19.497Z,36.60
2023-04-30T17:30:52.675Z,36.58
2023-04-30T17:33:26.772Z,36.73
2023-04-30T17:35:59.925Z,36.61
2023-04-30T17:38:32.305Z,36.87
2023-04-30T17:41:05.294Z,37.10
2023-04-30T17:43:37.562Z,37.22
2023-04-30T17:46:09.965Z,37.46
2023-04-30T17:48:42.413Z,37.61
2023-04-30T17:51:14.755Z,37.77
2023-04-30T17:53:47.117Z,37.92
2023-04-30T17:56:20.524Z,38.10
2023-04-30T17:58:53.045Z,38.47
2023-04-30T18:01:26.141Z,38.54
2023-04-30T18:04:00.468Z,38.91
2023-04-30T18:06:32.935Z,39.10
2023-04-30T18:09:05.332Z,39.04
2023-04-30T18:11:37.615Z,39.19
2023-04-30T18:14:10.107Z,39.36
2023-04-30T18:16:42.580Z,39.59
2023-04-30T18:19:15.134Z,39.71
2023-04-30T18:21:47.385Z,39.79
2023-04-30T18:24:21.155Z,40.04
2023-04-30T18:26:53.393Z,40.34
2023-04-30T18:29:26.015Z,40.38
2023-04-30T18:31:58.512Z,40.49
2023-04-30T18:34:30.998Z,40.64
2023-04-30T18:37:03.248Z,40.70
2023-04-30T18:39:35.969Z,40.86
2023-04-30T18:42:09.518Z,41.07
2023-04-30T18:44:41.918Z,41.30
2023-04-30T18:47:14.308Z,41.44
2023-04-30T18:49:47.061Z,41.48
2023-04-30T18:52:19.381Z,41.75
2023-04-30T18:54:52.210Z,41.88
2023-04-30T18:57:24.745Z,41.99
2023-04-30T18:59:57.630Z,42.24
2023-04-30T19:02:30.377Z,42.37
2023-04-30T19:05:03.853Z,42.45
2023-04-30T19:07:36.241Z,42.67
2023-04-30T19:10:10.097Z,42.78
2023-04-30T19:12:44.078Z,42.88
2023-04-30T19:15:18.020Z,43.07
2023-04-30T19:17:50.442Z,43.19
2023-04-30T19:20:22.843Z,43.25
2023-04-30T19:22:55.270Z,43.31
2023-04-30T19:25:27.682Z,43.41
2023-04-30T19:27:59.970Z,43.44
2023-04-30T19:30:32.394Z,43.45
2023-04-30T19:33:05.613Z,43.61
2023-04-30T19:35:38.819Z,43.61
2023-04-30T19:38:11.082Z,43.82
2023-04-30T19:40:49.184Z,43.80
2023-04-30T19:43:22.740Z,43.93
2023-04-30T19:45:56.448Z,43.98
2023-04-30T19:48:28.983Z,44.13
2023-04-30T19:51:03.755Z,44.23
2023-04-30T19:53:36.189Z,44.34
2023-04-30T19:56:09.420Z,44.33
2023-04-30T19:58:41.941Z,44.50
2023-04-30T20:01:14.881Z,44.52
2023-04-30T20:03:47.205Z,44.71
2023-04-30T20:06:20.626Z,44.73
2023-04-30T20:08:53.034Z,44.75
2023-04-30T20:11:25.629Z,44.85
2023-04-30T20:13:58.773Z,44.92
2023-04-30T20:16:31.559Z,45.03
2023-04-30T20:19:04.403Z,45.17
2023-04-30T20:21:36.783Z,45.19
2023-04-30T20:24:11.088Z,45.21
2023-04-30T20:26:43.562Z,45.41
2023-04-30T20:29:15.991Z,45.45
2023-04-30T20:31:48.378Z,45.44
2023-04-30T20:34:20.750Z,45.52
2023-04-30T20:36:53.073Z,45.60
2023-04-30T20:39:25.755Z,45.70
2023-04-30T20:41:59.255Z,45.74
2023-04-30T20:44:31.683Z,45.69
2023-04-30T20:47:05.548Z,45.78
2023-04-30T20:49:38.628Z,45.89
2023-04-30T20:52:12.307Z,45.96
2023-04-30T20:54:45.110Z,45.98
2023-04-30T20:57:17.452Z,46.04
2023-04-30T20:59:49.793Z,46.04
2023-04-30T21:02:22.110Z,46.12
2023-04-30T21:04:54.581Z,46.22
2023-04-30T21:07:27.706Z,46.23
2023-04-30T21:10:01.063Z,46.36
2023-04-30T21:12:33.838Z,46.50
2023-04-30T21:15:06.791Z,46.44
2023-04-30T21:17:39.216Z,46.43
2023-04-30T21:20:13.825Z,46.53
2023-04-30T21:22:46.433Z,46.50
2023-04-30T21:25:19.323Z,46.61
2023-04-30T21:27:52.390Z,46.66
2023-04-30T21:30:26.585Z,46.74
2023-04-30T21:32:59.394Z,46.83
2023-04-30T21:35:34.188Z,46.83
2023-04-30T21:38:06.802Z,46.86
2023-04-30T21:40:39.083Z,46.87
2023-04-30T21:43:11.338Z,46.99
2023-04-30T21:45:43.706Z,46.97
2023-04-30T21:48:16.012Z,46.90
2023-04-30T21:50:49.735Z,46.91
2023-04-30T21:53:22.228Z,46.96
2023-04-30T21:55:54.575Z,46.98
2023-04-30T21:58:27.029Z,47.18
2023-04-30T22:00:59.344Z,47.28
2023-04-30T22:03:31.875Z,47.41
2023-04-30T22:06:04.594Z,47.40
2023-04-30T22:08:37.009Z,47.54
2023-04-30T22:11:09.388Z,47.61
2023-04-30T22:13:41.949Z,47.74
2023-04-30T22:16:14.278Z,48.02
2023-04-30T22:18:46.644Z,48.14
2023-04-30T22:21:19.022Z,48.20
2023-04-30T22:23:51.279Z,48.39
2023-04-30T22:26:25.323Z,48.40
2023-04-30T22:28:58.005Z,48.57
2023-04-30T22:31:30.680Z,48.68
2023-04-30T22:34:04.010Z,48.78
2023-04-30T22:36:36.189Z,48.97
2023-04-30T22:39:08.645Z,49.10
2023-04-30T22:41:41.088Z,49.23
2023-04-30T22:44:13.391Z,49.43
2023-04-30T22:46:46.257Z,49.54
2023-04-30T22:49:27.596Z,49.82
2023-04-30T22:52:04.524Z,49.81
2023-04-30T22:54:37.084Z,50.08
2023-04-30T22:57:09.293Z,50.13
2023-04-30T22:59:41.751Z,50.14
2023-04-30T23:02:14.736Z,50.20
2023-04-30T23:04:46.974Z,50.31
2023-04-30T23:07:19.434Z,50.29
2023-04-30T23:09:51.726Z,50.39
2023-04-30T23:12:24.036Z,50.47
2023-04-30T23:14:56.296Z,50.52
2023-04-30T23:17:28.719Z,50.46
2023-04-30T23:20:01.089Z,50.48
2023-04-30T23:22:33.633Z,50.46
2023-04-30T23:25:07.113Z,50.56
2023-04-30T23:27:39.511Z,50.67
2023-04-30T23:30:13.614Z,50.56
2023-04-30T23:32:46.031Z,50.66
2023-04-30T23:35:18.652Z,50.63
2023-04-30T23:37:51.577Z,50.80
2023-04-30T23:40:24.038Z,50.77
2023-04-30T23:42:56.361Z,50.94
2023-04-30T23:45:28.652Z,50.89
2023-04-30T23:48:01.359Z,50.85
2023-04-30T23:50:33.918Z,50.99
2023-04-30T23:53:06.304Z,51.04
2023-04-30T23:55:41.680Z,51.10
2023-04-30T23:58:14.092Z,51.22
